createdAt,value
2023-02-14T00:00:27.834Z,79.63
2023-02-14T00:02:54.590Z,79.95
2023-02-14T00:05:21.115Z,79.48
2023-02-14T00:07:47.643Z,79.70
2023-02-14T00:10:14.142Z,79.82
2023-02-14T00:12:40.630Z,79.90
2023-02-14T00:15:22.374Z,79.76
2023-02-14T00:17:50.263Z,79.50
2023-02-14T00:20:17.072Z,79.26
2023-02-14T00:22:43.879Z,79.74
2023-02-14T00:25:10.546Z,79.74
2023-02-14T00:27:37.560Z,79.93
2023-02-14T00:30:06.337Z,80.17
2023-02-14T00:32:32.885Z,79.88
2023-02-14T00:34:59.619Z,79.85
2023-02-14T00:37:26.221Z,79.72
2023-02-14T00:39:52.976Z,79.92
2023-02-14T00:42:19.512Z,80.29
2023-02-14T00:44:46.106Z,80.16
2023-02-14T00:47:12.602Z,80.36
2023-02-14T00:49:39.121Z,80.24
2023-02-14T00:52:05.689Z,80.06
2023-02-14T00:54:32.239Z,80.10
2023-02-14T00:56:59.302Z,79.80
2023-02-14T00:59:25.965Z,80.13
2023-02-14T01:01:52.510Z,80.03
2023-02-14T01:04:19.022Z,80.25
2023-02-14T01:06:45.965Z,80.17
2023-02-14T01:09:13.082Z,80.44
2023-02-14T01:11:40.024Z,79.75
2023-02-14T01:14:06.545Z,80.39
2023-02-14T01:16:33.606Z,80.39
2023-02-14T01:19:01.128Z,80.60
2023-02-14T01:21:30.372Z,80.49
2023-02-14T01:23:59.140Z,80.74
2023-02-14T01:26:26.287Z,80.69
2023-02-14T01:28:52.829Z,80.66
2023-02-14T01:31:26.208Z,79.88
2023-02-14T01:33:53.850Z,80.16
2023-02-14T01:36:28.483Z,80.38
2023-02-14T01:39:04.664Z,81.10
2023-02-14T01:41:34.168Z,81.31
2023-02-14T01:44:00.682Z,81.43
2023-02-14T01:46:30.355Z,81.12
2023-02-14T01:49:03.779Z,81.11
2023-02-14T01:51:32.446Z,80.98
2023-02-14T01:53:59.703Z,81.39
2023-02-14T01:56:38.330Z,81.30
2023-02-14T01:59:10.918Z,81.19
2023-02-14T02:01:38.579Z,81.04
2023-02-14T02:04:17.355Z,81.17
2023-02-14T02:06:57.191Z,81.43
2023-02-14T02:09:33.349Z,81.14
2023-02-14T02:12:00.948Z,81.01
2023-02-14T02:14:29.570Z,81.25
2023-02-14T02:17:11.259Z,81.12
2023-02-14T02:20:08.655Z,81.25
2023-02-14T02:22:35.957Z,81.43
2023-02-14T02:25:21.243Z,81.88
2023-02-14T02:28:20.024Z,81.31
2023-02-14T02:31:15.811Z,81.35
2023-02-14T02:33:57.365Z,81.43
2023-02-14T02:36:48.363Z,81.43
2023-02-14T02:39:23.760Z,81.63
2023-02-14T02:42:05.102Z,81.54
2023-02-14T02:44:50.755Z,81.72
2023-02-14T02:47:26.713Z,81.05
2023-02-14T02:50:38.181Z,81.08
2023-02-14T02:53:11.298Z,81.38
2023-02-14T02:56:15.561Z,81.25
2023-02-14T02:58:46.747Z,81.03
2023-02-14T03:01:17.460Z,81.48
2023-02-14T03:04:07.012Z,81.15
2023-02-14T03:06:34.190Z,81.37
2023-02-14T03:09:30.116Z,81.18
2023-02-14T03:12:08.032Z,82.00
2023-02-14T03:14:50.165Z,81.24
2023-02-14T03:17:51.850Z,81.33
2023-02-14T03:20:29.674Z,81.32
2023-02-14T03:23:03.613Z,81.71
2023-02-14T03:25:45.185Z,81.57
2023-02-14T03:28:24.651Z,81.73
2023-02-14T03:30:56.948Z,81.42
2023-02-14T03:33:44.041Z,81.41
2023-02-14T03:36:17.323Z,81.19
2023-02-14T03:39:10.436Z,81.34
2023-02-14T03:41:43.770Z,81.25
2023-02-14T03:44:12.510Z,81.69
2023-02-14T03:46:49.943Z,81.51
2023-02-14T03:49:23.864Z,81.64
2023-02-14T03:51:54.894Z,82.22
2023-02-14T03:54:23.539Z,82.08
2023-02-14T03:56:54.579Z,81.72
2023-02-14T03:59:24.455Z,81.68
2023-02-14T04:02:06.029Z,81.58
2023-02-14T04:04:35.898Z,81.65
2023-02-14T04:07:28.360Z,81.67
2023-02-14T04:09:55.002Z,81.42
2023-02-14T04:12:32.402Z,81.09
2023-02-14T04:15:04.594Z,80.92
2023-02-14T04:17:49.300Z,80.76
2023-02-14T04:20:15.830Z,81.23
2023-02-14T04:22:42.358Z,81.58
2023-02-14T04:25:08.844Z,81.67
2023-02-14T04:27:35.342Z,81.51
2023-02-14T04:30:01.936Z,81.37
2023-02-14T04:32:28.488Z,81.27
2023-02-14T04:34:55.062Z,81.28
2023-02-14T04:37:21.553Z,81.87
2023-02-14T04:39:48.180Z,81.25
2023-02-14T04:42:14.859Z,81.27
2023-02-14T04:44:41.594Z,81.23
2023-02-14T04:47:08.658Z,81.19
2023-02-14T04:49:35.779Z,81.32
2023-02-14T04:52:02.614Z,81.76
2023-02-14T04:54:29.211Z,81.21
2023-02-14T04:56:55.767Z,81.31
2023-02-14T04:59:24.697Z,81.61
2023-02-14T05:01:51.690Z,81.16
2023-02-14T05:04:18.190Z,81.25
2023-02-14T05:06:44.691Z,81.12
2023-02-14T05:09:11.212Z,81.25
2023-02-14T05:11:38.298Z,81.52
2023-02-14T05:14:04.809Z,81.67
2023-02-14T05:16:31.409Z,81.58
2023-02-14T05:18:57.924Z,81.54
2023-02-14T05:21:24.538Z,80.93
2023-02-14T05:23:51.021Z,80.75
2023-02-14T05:26:17.556Z,81.12
2023-02-14T05:28:44.042Z,80.95
2023-02-14T05:31:10.679Z,81.16
2023-02-14T05:33:37.501Z,81.36
2023-02-14T05:36:04.312Z,80.92
2023-02-14T05:38:33.365Z,80.76
2023-02-14T05:41:00.163Z,80.88
2023-02-14T05:43:27.207Z,81.19
2023-02-14T05:45:54.616Z,81.07
2023-02-14T05:48:21.338Z,81.19
2023-02-14T05:50:48.177Z,81.08
2023-02-14T05:53:15.017Z,81.18
2023-02-14T05:55:41.493Z,80.75
2023-02-14T05:58:08.161Z,80.72
2023-02-14T06:00:34.875Z,80.75
2023-02-14T06:03:01.402Z,81.02
2023-02-14T06:05:27.993Z,81.09
2023-02-14T06:07:54.500Z,81.12
2023-02-14T06:10:23.258Z,80.83
2023-02-14T06:12:51.501Z,80.83
2023-02-14T06:15:18.707Z,80.46
2023-02-14T06:17:45.322Z,80.92
2023-02-14T06:20:12.390Z,80.87
2023-02-14T06:22:41.491Z,80.94
2023-02-14T06:25:08.185Z,80.91
2023-02-14T06:27:34.703Z,80.77
2023-02-14T06:30:01.338Z,81.17
2023-02-14T06:32:27.866Z,81.08
2023-02-14T06:34:54.352Z,81.39
2023-02-14T06:37:20.878Z,81.36
2023-02-14T06:39:47.463Z,81.06
2023-02-14T06:42:14.282Z,80.78
2023-02-14T06:44:41.085Z,80.62
2023-02-14T06:47:08.496Z,80.49
2023-02-14T06:49:35.014Z,80.75
2023-02-14T06:52:01.693Z,80.56
2023-02-14T06:54:28.763Z,80.35
2023-02-14T06:56:55.900Z,80.49
2023-02-14T06:59:23.095Z,80.81
2023-02-14T07:01:49.684Z,80.82
2023-02-14T07:04:17.722Z,80.96
2023-02-14T07:06:45.996Z,80.94
2023-02-14T07:09:16.710Z,80.30
2023-02-14T07:11:45.331Z,80.69
2023-02-14T07:14:12.334Z,80.72
2023-02-14T07:16:39.089Z,80.51
2023-02-14T07:19:05.669Z,80.12
2023-02-14T07:21:32.346Z,79.95
2023-02-14T07:23:59.048Z,79.96
2023-02-14T07:26:25.545Z,79.93
2023-02-14T07:28:52.045Z,80.03
2023-02-14T07:31:21.040Z,79.93
2023-02-14T07:33:47.694Z,79.91
2023-02-14T07:36:14.242Z,79.95
2023-02-14T07:38:40.861Z,80.05
2023-02-14T07:41:07.616Z,80.27
2023-02-14T07:43:34.460Z,80.26
2023-02-14T07:46:02.841Z,80.25
2023-02-14T07:48:31.414Z,79.51
2023-02-14T07:51:00.189Z,79.48
2023-02-14T07:53:26.905Z,79.39
2023-02-14T07:55:53.587Z,79.46
2023-02-14T07:58:20.135Z,79.63
2023-02-14T08:00:46.719Z,79.67
2023-02-14T08:03:14.023Z,79.30
2023-02-14T08:05:41.103Z,79.05
2023-02-14T08:08:07.950Z,78.96
2023-02-14T08:10:34.521Z,78.67
2023-02-14T08:13:01.166Z,78.69
2023-02-14T08:15:52.287Z,78.32
2023-02-14T08:18:20.366Z,78.02
2023-02-14T08:20:49.675Z,78.22
2023-02-14T08:23:18.014Z,77.91
2023-02-14T08:25:44.596Z,77.40
2023-02-14T08:28:13.178Z,77.24
2023-02-14T08:30:39.657Z,77.07
2023-02-14T08:33:06.712Z,76.80
2023-02-14T08:35:33.443Z,76.77
2023-02-14T08:37:59.978Z,76.32
2023-02-14T08:40:26.779Z,76.09
2023-02-14T08:42:54.784Z,76.18
2023-02-14T08:45:21.855Z,75.76
2023-02-14T08:47:48.368Z,75.51
2023-02-14T08:50:17.487Z,75.59
2023-02-14T08:52:44.605Z,75.43
2023-02-14T08:55:13.350Z,75.04
2023-02-14T08:57:40.199Z,75.11
2023-02-14T09:00:07.814Z,74.79
2023-02-14T09:02:34.473Z,74.39
2023-02-14T09:05:01.094Z,74.25
2023-02-14T09:07:27.850Z,73.84
2023-02-14T09:09:54.374Z,73.67
2023-02-14T09:12:20.928Z,73.50
2023-02-14T09:14:47.423Z,73.15
2023-02-14T09:17:15.183Z,72.62
2023-02-14T09:19:42.304Z,72.57
2023-02-14T09:22:11.213Z,71.81
2023-02-14T09:24:39.676Z,71.13
2023-02-14T09:27:06.323Z,71.00
2023-02-14T09:29:33.629Z,70.32
2023-02-14T09:32:01.721Z,69.59
2023-02-14T09:34:47.754Z,69.14
2023-02-14T09:37:33.196Z,68.80
2023-02-14T09:39:59.713Z,68.43
2023-02-14T09:43:02.791Z,67.13
2023-02-14T09:45:32.260Z,68.21
2023-02-14T09:48:17.230Z,66.87
2023-02-14T09:50:48.891Z,67.41
2023-02-14T09:53:15.343Z,65.58
2023-02-14T09:56:50.378Z,65.59
2023-02-14T09:59:27.453Z,66.52
2023-02-14T10:02:28.729Z,66.45
2023-02-14T10:05:24.852Z,66.18
2023-02-14T10:08:27.593Z,65.60
2023-02-14T10:11:05.673Z,66.02
2023-02-14T10:13:47.152Z,65.40
2023-02-14T10:16:40.158Z,64.64
2023-02-14T10:19:48.849Z,64.15
2023-02-14T10:22:18.372Z,64.07
2023-02-14T10:24:52.944Z,62.48
2023-02-14T10:27:25.449Z,63.07
2023-02-14T10:29:52.173Z,62.38
2023-02-14T10:32:44.751Z,61.46
2023-02-14T10:35:35.849Z,61.83
2023-02-14T10:38:30.572Z,60.61
2023-02-14T10:41:38.808Z,59.10
2023-02-14T10:44:41.372Z,58.66
2023-02-14T10:47:31.462Z,58.02
2023-02-14T10:50:09.924Z,57.85
2023-02-14T10:53:04.710Z,57.86
2023-02-14T10:55:57.001Z,56.65
2023-02-14T10:58:26.690Z,56.96
2023-02-14T11:00:56.189Z,56.98
2023-02-14T11:03:23.874Z,56.36
2023-02-14T11:05:50.959Z,56.33
2023-02-14T11:08:32.052Z,55.09
2023-02-14T11:11:18.404Z,55.21
2023-02-14T11:13:46.045Z,55.03
2023-02-14T11:16:27.730Z,53.04
2023-02-14T11:19:08.154Z,53.28
2023-02-14T11:21:39.932Z,53.11
2023-02-14T11:24:31.413Z,53.43
2023-02-14T11:27:02.126Z,53.82
2023-02-14T11:29:36.224Z,51.72
2023-02-14T11:32:09.187Z,51.68
2023-02-14T11:34:52.492Z,51.11
2023-02-14T11:37:21.596Z,52.48
2023-02-14T11:39:49.034Z,50.98
2023-02-14T11:42:45.526Z,49.97
2023-02-14T11:45:40.198Z,48.50
2023-02-14T11:48:36.600Z,49.19
2023-02-14T11:51:10.755Z,48.41
2023-02-14T11:53:48.478Z,45.18
2023-02-14T11:56:17.548Z,47.20
2023-02-14T11:58:59.490Z,46.73
2023-02-14T12:01:29.963Z,43.91
2023-02-14T12:04:01.178Z,43.81
2023-02-14T12:06:31.362Z,43.43
2023-02-14T12:09:22.377Z,43.21
2023-02-14T12:11:59.631Z,41.42
2023-02-14T12:14:29.899Z,41.27
2023-02-14T12:17:04.684Z,39.50
2023-02-14T12:19:44.630Z,38.17
2023-02-14T12:22:18.892Z,37.01
2023-02-14T12:25:11.736Z,37.15
2023-02-14T12:28:01.460Z,37.77
2023-02-14T12:30:32.349Z,38.53
2023-02-14T12:33:00.230Z,37.68
2023-02-14T12:35:42.082Z,35.46
2023-02-14T12:38:17.400Z,35.21
2023-02-14T12:40:52.914Z,34.50
2023-02-14T12:43:47.941Z,33.96
2023-02-14T12:46:20.316Z,34.83
2023-02-14T12:49:12.445Z,34.66
2023-02-14T12:52:07.000Z,33.97
2023-02-14T12:54:48.394Z,34.03
2023-02-14T12:57:33.633Z,33.76
2023-02-14T13:00:18.686Z,33.63
2023-02-14T13:03:01.178Z,32.79
2023-02-14T13:05:53.311Z,33.24
2023-02-14T13:09:08.071Z,33.33
2023-02-14T13:11:59.052Z,33.18
2023-02-14T13:15:04.773Z,33.18
2023-02-14T13:18:10.818Z,33.13
2023-02-14T13:20:42.775Z,32.78
2023-02-14T13:23:19.032Z,33.53
2023-02-14T13:26:09.891Z,33.52
2023-02-14T13:28:38.396Z,32.77
2023-02-14T13:31:05.698Z,31.64
2023-02-14T13:33:43.467Z,30.00
2023-02-14T13:36:13.342Z,28.54
2023-02-14T13:38:46.933Z,24.66
2023-02-14T13:41:15.342Z,27.76
2023-02-14T13:43:46.688Z,27.96
2023-02-14T13:46:15.725Z,27.61
2023-02-14T13:48:54.646Z,25.17
2023-02-14T13:51:21.181Z,26.21
2023-02-14T13:53:49.153Z,28.01
2023-02-14T13:56:15.581Z,27.03
2023-02-14T13:58:52.215Z,26.01
2023-02-14T14:01:36.982Z,23.69
2023-02-14T14:04:24.012Z,24.65
2023-02-14T14:07:02.813Z,23.83
2023-02-14T14:09:41.575Z,24.20
2023-02-14T14:12:26.602Z,25.36
2023-02-14T14:15:05.655Z,24.69
2023-02-14T14:17:35.151Z,24.07
2023-02-14T14:20:04.496Z,23.31
2023-02-14T14:22:35.837Z,24.62
2023-02-14T14:25:09.044Z,25.70
2023-02-14T14:27:42.904Z,25.09
2023-02-14T14:30:21.093Z,27.90
2023-02-14T14:32:47.846Z,25.63
2023-02-14T14:35:18.746Z,27.42
2023-02-14T14:37:51.183Z,28.22
2023-02-14T14:40:29.586Z,28.07
2023-02-14T14:43:06.171Z,29.01
2023-02-14T14:45:33.002Z,30.02
2023-02-14T14:48:08.388Z,28.90
2023-02-14T14:50:36.363Z,30.45
2023-02-14T14:53:06.693Z,31.69
2023-02-14T14:55:36.201Z,33.67
2023-02-14T14:58:10.559Z,32.91
2023-02-14T15:00:42.206Z,33.28
2023-02-14T15:03:14.933Z,34.15
2023-02-14T15:05:45.220Z,33.71
2023-02-14T15:08:23.043Z,34.43
2023-02-14T15:10:54.497Z,35.70
2023-02-14T15:13:53.604Z,36.77
2023-02-14T15:16:29.825Z,37.15
2023-02-14T15:19:00.837Z,37.15
2023-02-14T15:21:28.060Z,36.89
2023-02-14T15:23:54.794Z,37.66
2023-02-14T15:26:31.606Z,37.05
2023-02-14T15:29:07.489Z,38.16
2023-02-14T15:31:40.591Z,38.61
2023-02-14T15:34:09.759Z,39.36
2023-02-14T15:36:36.693Z,39.49
2023-02-14T15:39:07.961Z,38.77
2023-02-14T15:41:34.492Z,40.32
2023-02-14T15:44:00.985Z,40.06
2023-02-14T15:46:36.752Z,40.82
2023-02-14T15:49:09.047Z,41.10
2023-02-14T15:51:37.018Z,42.07
2023-02-14T15:54:07.498Z,42.07
2023-02-14T15:56:42.165Z,42.72
2023-02-14T15:59:29.532Z,42.26
2023-02-14T16:02:27.730Z,42.72
2023-02-14T16:04:54.403Z,43.65
2023-02-14T16:07:27.217Z,43.86
2023-02-14T16:10:18.204Z,43.25
2023-02-14T16:12:57.202Z,44.30
2023-02-14T16:15:29.353Z,43.57
2023-02-14T16:17:56.368Z,43.49
2023-02-14T16:20:35.140Z,45.30
2023-02-14T16:23:23.079Z,46.28
2023-02-14T16:25:49.691Z,46.04
2023-02-14T16:28:16.555Z,46.31
2023-02-14T16:30:45.040Z,46.21
2023-02-14T16:33:35.037Z,46.30
2023-02-14T16:36:30.106Z,46.66
2023-02-14T16:38:57.099Z,48.48
2023-02-14T16:41:27.513Z,49.33
2023-02-14T16:43:55.878Z,48.98
2023-02-14T16:46:29.656Z,48.49
2023-02-14T16:48:57.146Z,48.66
2023-02-14T16:51:32.503Z,50.11
2023-02-14T16:54:02.791Z,49.90
2023-02-14T16:56:33.318Z,50.25
2023-02-14T16:59:00.072Z,50.69
2023-02-14T17:01:26.653Z,51.13
2023-02-14T17:03:53.290Z,53.14
2023-02-14T17:06:23.334Z,51.87
2023-02-14T17:08:52.262Z,51.29
2023-02-14T17:11:19.658Z,52.24
2023-02-14T17:13:47.629Z,51.84
2023-02-14T17:16:16.341Z,53.66
2023-02-14T17:18:48.624Z,54.47
2023-02-14T17:21:16.633Z,53.53
2023-02-14T17:23:43.306Z,53.39
2023-02-14T17:26:11.139Z,55.25
2023-02-14T17:28:37.721Z,56.05
2023-02-14T17:31:04.724Z,55.60
2023-02-14T17:33:32.868Z,55.16
2023-02-14T17:36:06.636Z,55.04
2023-02-14T17:38:35.822Z,55.77
2023-02-14T17:41:35.117Z,56.61
2023-02-14T17:44:01.932Z,57.52
2023-02-14T17:46:30.493Z,56.64
2023-02-14T17:48:57.943Z,57.17
2023-02-14T17:51:25.352Z,58.17
2023-02-14T17:53:51.858Z,57.89
2023-02-14T17:56:21.816Z,57.86
2023-02-14T17:58:50.644Z,58.36
2023-02-14T18:01:20.486Z,58.17
2023-02-14T18:03:47.723Z,59.00
2023-02-14T18:06:14.993Z,58.50
2023-02-14T18:08:46.208Z,57.44
2023-02-14T18:11:13.923Z,58.91
2023-02-14T18:13:40.418Z,59.38
2023-02-14T18:16:10.068Z,59.63
2023-02-14T18:18:37.494Z,58.95
2023-02-14T18:21:06.134Z,59.79
2023-02-14T18:23:33.297Z,60.79
2023-02-14T18:26:04.598Z,59.40
2023-02-14T18:28:32.070Z,59.58
2023-02-14T18:31:05.893Z,61.24
2023-02-14T18:33:33.246Z,61.71
2023-02-14T18:36:21.213Z,61.27
2023-02-14T18:38:48.830Z,61.92
2023-02-14T18:41:17.799Z,60.94
2023-02-14T18:43:45.056Z,60.24
2023-02-14T18:46:17.389Z,60.24
2023-02-14T18:48:44.667Z,62.36
2023-02-14T18:51:21.768Z,62.83
2023-02-14T18:53:50.844Z,64.04
2023-02-14T18:56:19.386Z,64.39
2023-02-14T18:58:48.602Z,64.12
2023-02-14T19:01:17.934Z,62.96
2023-02-14T19:03:45.058Z,62.42
2023-02-14T19:06:12.858Z,62.39
2023-02-14T19:08:40.615Z,63.29
2023-02-14T19:11:15.479Z,63.63
2023-02-14T19:13:51.540Z,62.97
2023-02-14T19:16:21.538Z,63.58
2023-02-14T19:18:49.962Z,63.53
2023-02-14T19:21:22.184Z,65.03
2023-02-14T19:23:49.595Z,65.68
2023-02-14T19:26:19.973Z,64.86
2023-02-14T19:28:48.286Z,64.32
2023-02-14T19:31:15.897Z,64.35
2023-02-14T19:33:44.836Z,64.98
2023-02-14T19:36:13.654Z,65.80
2023-02-14T19:38:41.851Z,65.50
2023-02-14T19:41:20.101Z,65.69
2023-02-14T19:43:47.713Z,65.11
2023-02-14T19:46:15.582Z,64.69
2023-02-14T19:48:42.544Z,66.16
2023-02-14T19:51:33.774Z,67.01
2023-02-14T19:54:01.755Z,67.14
2023-02-14T19:56:32.196Z,68.06
2023-02-14T19:58:59.043Z,67.79
2023-02-14T20:01:34.294Z,66.54
2023-02-14T20:04:01.111Z,67.35
2023-02-14T20:06:29.239Z,67.36
2023-02-14T20:08:57.959Z,65.58
2023-02-14T20:11:35.418Z,65.69
2023-02-14T20:14:13.016Z,67.41
2023-02-14T20:16:40.345Z,67.20
2023-02-14T20:19:12.056Z,66.62
2023-02-14T20:21:41.854Z,68.87
2023-02-14T20:24:10.458Z,68.63
2023-02-14T20:26:39.337Z,69.36
2023-02-14T20:29:07.347Z,69.08
2023-02-14T20:31:34.631Z,69.22
2023-02-14T20:34:02.537Z,69.38
2023-02-14T20:36:29.549Z,69.93
2023-02-14T20:39:02.140Z,70.65
2023-02-14T20:41:34.553Z,71.00
2023-02-14T20:44:22.511Z,70.41
2023-02-14T20:46:51.419Z,68.94
2023-02-14T20:49:21.537Z,68.58
2023-02-14T20:51:52.366Z,69.09
2023-02-14T20:54:21.790Z,70.38
2023-02-14T20:56:48.589Z,71.55
2023-02-14T20:59:15.085Z,71.04
2023-02-14T21:01:41.747Z,70.58
2023-02-14T21:04:08.386Z,71.54
2023-02-14T21:06:35.637Z,71.46
2023-02-14T21:09:03.778Z,71.55
2023-02-14T21:11:30.358Z,72.07
2023-02-14T21:13:59.987Z,72.01
2023-02-14T21:16:27.719Z,72.46
2023-02-14T21:18:58.847Z,72.89
2023-02-14T21:21:35.248Z,71.69
2023-02-14T21:24:05.181Z,73.55
2023-02-14T21:26:31.974Z,72.46
2023-02-14T21:28:58.594Z,72.68
2023-02-14T21:31:25.717Z,72.73
2023-02-14T21:33:55.134Z,73.31
2023-02-14T21:36:24.257Z,73.15
2023-02-14T21:38:51.349Z,72.77
2023-02-14T21:41:26.096Z,74.26
2023-02-14T21:43:56.188Z,73.41
2023-02-14T21:46:27.386Z,73.30
2023-02-14T21:49:13.895Z,72.85
2023-02-14T21:51:40.852Z,73.91
2023-02-14T21:54:08.541Z,74.38
2023-02-14T21:56:36.710Z,74.50
2023-02-14T21:59:03.671Z,73.78
2023-02-14T22:01:35.437Z,74.20
2023-02-14T22:04:02.761Z,74.04
2023-02-14T22:06:29.353Z,74.07
2023-02-14T22:09:01.499Z,73.84
2023-02-14T22:11:29.384Z,74.45
2023-02-14T22:13:56.434Z,74.86
2023-02-14T22:16:24.550Z,74.44
2023-02-14T22:18:51.638Z,74.27
2023-02-14T22:21:23.390Z,74.99
2023-02-14T22:23:50.231Z,75.65
2023-02-14T22:26:28.381Z,73.83
2023-02-14T22:28:59.010Z,75.66
2023-02-14T22:31:27.936Z,75.98
2023-02-14T22:33:54.956Z,74.86
2023-02-14T22:36:21.609Z,74.91
2023-02-14T22:38:48.128Z,75.13
2023-02-14T22:41:17.596Z,75.83
2023-02-14T22:43:44.981Z,75.34
2023-02-14T22:46:12.616Z,74.65
2023-02-14T22:48:39.806Z,74.59
2023-02-14T22:51:07.370Z,75.46
2023-02-14T22:53:34.207Z,75.33
2023-02-14T22:56:16.077Z,75.47
2023-02-14T22:58:42.723Z,75.40
2023-02-14T23:01:17.011Z,75.31
2023-02-14T23:03:44.960Z,75.99
2023-02-14T23:06:12.498Z,75.25
2023-02-14T23:08:40.639Z,74.79
2023-02-14T23:11:13.214Z,75.75
2023-02-14T23:13:58.134Z,75.94
2023-02-14T23:16:43.691Z,76.03
2023-02-14T23:19:32.701Z,75.66
2023-02-14T23:22:12.464Z,76.43
2023-02-14T23:24:39.301Z,75.79
2023-02-14T23:27:06.714Z,76.24
2023-02-14T23:29:33.663Z,75.66
2023-02-14T23:32:00.200Z,76.38
2023-02-14T23:34:29.651Z,76.57
2023-02-14T23:36:56.143Z,76.27
2023-02-14T23:39:22.809Z,75.90
2023-02-14T23:41:49.689Z,76.19
2023-02-14T23:44:21.801Z,75.92
2023-02-14T23:46:51.814Z,75.74
2023-02-14T23:49:19.030Z,76.51
2023-02-14T23:51:47.411Z,75.98
2023-02-14T23:54:14.840Z,76.37
2023-02-14T23:56:41.408Z,75.93
2023-02-14T23:59:08.518Z,76.34
